EDT,Max TemperatureF,Mean TemperatureF,Min TemperatureF,Max Dew PointF,MeanDew PointF,Min DewpointF,Max Humidity, Mean Humidity, Min Humidity, Max Sea Level PressureIn, Mean Sea Level PressureIn, Min Sea Level PressureIn, Max VisibilityMiles, Mean VisibilityMiles, Min VisibilityMiles, Max Wind SpeedMPH, Mean Wind SpeedMPH, Max Gust SpeedMPH,PrecipitationIn, CloudCover, Events, WindDirDegrees
2012-10-1,72,60,47,53,48,44,96,67,38,29.98,29.94,29.89,10,10,7,12,5,16,T,2,Rain,270
2012-10-2,71,68,64,70,65,52,97,80,63,29.98,29.95,29.92,10,5,0,12,6,14,0.14,8,Fog-Rain,52
2012-10-3,81,75,68,73,69,68,100,85,69,30.13,30.04,29.96,10,4,0,13,4,15,0.01,5,Fog-Rain,285
2012-10-4,79,71,62,72,68,61,97,86,74,30.14,30.11,30.06,10,5,2,12,4,15,0.02,4,Rain,218
2012-10-5,82,70,57,61,57,54,97,70,42,30.12,30.06,29.96,10,9,4,13,5,16,0.00,1,,262
2012-10-6,78,64,49,62,55,42,93,73,53,30.04,29.91,29.82,10,10,7,22,9,28,0.00,2,,261
2012-10-7,53,49,44,48,44,41,93,80,66,30.15,30.10,30.04,10,8,0,9,4,10,0.18,5,Fog-Rain,301
2012-10-8,54,47,39,45,42,37,100,83,66,30.30,30.24,30.16,10,10,6,10,6,13,T,4,Rain,343
2012-10-9,59,55,50,56,50,43,93,82,71,30.20,30.15,30.06,10,9,4,16,8,20,0.10,8,Rain,13
2012-10-10,68,59,49,57,52,38,100,73,45,30.06,29.97,29.87,10,7,0,20,8,25,0.00,6,,273
2012-10-11,61,52,43,39,35,33,71,54,36,30.27,30.20,30.07,10,10,10,16,8,20,0.00,0,,272
2012-10-12,64,51,38,41,35,27,100,68,35,30.45,30.23,30.13,10,10,10,25,9,32,0.00,1,,319
2012-10-13,57,45,33,42,32,26,75,55,35,30.54,30.45,30.33,10,10,10,15,7,20,0.00,0,,126
2012-10-14,74,62,50,56,49,42,89,62,35,30.28,30.14,29.96,10,10,10,23,11,30,0.00,1,,192
2012-10-15,68,63,57,63,60,51,93,81,68,29.94,29.76,29.68,10,10,6,15,9,21,0.15,6,Rain,211
2012-10-16,62,52,41,48,42,39,89,66,43,29.94,29.85,29.76,10,10,10,23,10,28,0.00,1,,303
2012-10-17,63,51,39,48,43,39,93,71,48,30.04,29.99,29.93,10,10,8,9,3,12,0.00,0,,157
2012-10-18,70,58,45,59,51,45,93,70,47,30.01,29.96,29.86,10,9,6,21,9,25,0.01,4,,131
2012-10-19,74,67,60,67,64,59,93,86,79,29.86,29.75,29.63,10,8,2,25,11,35,0.63,7,Rain-Thunderstorm,161
2012-10-20,67,58,49,58,50,40,100,71,42,29.90,29.75,29.68,10,5,0,17,7,21,0.00,1,Fog,281
2012-10-21,67,56,44,44,42,39,83,63,42,30.10,30.03,29.92,10,10,10,18,8,24,0.00,0,,284
2012-10-22,69,57,44,46,42,38,86,63,39,30.19,30.13,30.09,10,10,10,15,6,21,0.00,0,,290
2012-10-23,69,58,46,56,50,44,93,74,55,30.16,30.10,30.06,10,10,10,8,2,10,T,2,Rain,153
2012-10-24,76,65,53,61,56,52,100,77,54,30.18,30.11,30.07,10,8,2,13,4,16,0.00,2,,111
2012-10-25,66,63,60,59,58,57,97,85,73,30.25,30.22,30.19,10,8,3,10,6,13,0.00,8,,94
2012-10-26,68,64,59,58,57,55,90,79,68,30.22,30.16,30.10,10,10,6,10,6,13,0.00,7,,58
2012-10-27,67,62,57,57,53,50,90,77,63,30.08,29.97,29.89,10,10,10,17,9,21,0.00,2,,55
2012-10-28,60,57,54,52,50,46,89,75,60,29.87,29.74,29.59,10,9,4,26,15,36,0.80,7,Rain,32
2012-10-29,61,55,49,57,52,48,96,90,83,31.15,28.81,28.19,10,3,1,46,24,58,3.79,8,Rain,342
2012-10-30,49,46,42,48,42,39,96,89,82,29.48,29.25,28.51,10,9,4,46,17,55,0.42,8,Rain,177
2012-10-31,52,47,42,43,39,35,100,80,59,29.63,29.56,29.48,10,10,5,18,7,22,T,8,Rain,236